Terminal Aerodrome Forecast
Issued by NWS

Home | Current Version | Previous Version | Text Only | Print | Product List | Glossary Off
Versions: 1 2 3 4 5 6 7 8 9 10 11 12 13 14 15 16 17 18

000
FTUS43 KGRB 210533
TAFRHI
TAF
KRHI 210533Z 2106/2206 34009G16KT P6SM SCT008 BKN015
      TEMPO 2106/2110 3SM -RASN BKN008
     FM211000 33010KT P6SM BKN010
      TEMPO 2110/2114 -SN BKN007
     FM211400 35008KT P6SM SCT008
     FM211600 35008KT P6SM SKC
     FM220200 VRB03KT P6SM SKC=

USA.gov is the U.S. government's official web portal to all federal, state and local government web resources and services.